Time;durP1;ratioP1;P1;durP2;ratioP2;P2;SDS_P1;SDS_P2;PMS_P1;PMS_P2;Temp;Humidity;BMP_temperature;BMP_pressure;BME280_temperature;BME280_humidity;BME280_pressure;Samples;Min_cycle;Max_cycle;Signal;HPM_P1;HPM_P2
2022/05/24 00:02:30;;;;;;;0.00;0.00;;;;;;;14.88;nan;93047.44;4993500;28;20665;-74
2022/05/24 00:05:16;;;;;;;0.03;0.03;;;;;;;14.87;nan;93057.28;5025572;28;20297;-75
2022/05/24 00:08:00;;;;;;;0.00;0.00;;;;;;;14.84;nan;93052.94;5022554;28;20203;-75
2022/05/24 00:10:54;;;;;;;0.00;0.00;;;;;;;14.88;nan;93058.72;5025168;28;20202;-72
2022/05/24 00:13:38;;;;;;;0.10;0.10;;;;;;;14.81;nan;93048.56;5028839;28;20194;-73
2022/05/24 00:16:22;;;;;;;0.00;0.00;;;;;;;14.77;nan;93054.03;5009848;28;20214;-74
2022/05/24 00:19:07;;;;;;;0.00;0.00;;;;;;;14.79;nan;93047.75;5032754;28;20245;-74
2022/05/24 00:21:51;;;;;;;0.10;0.10;;;;;;;14.75;nan;93056.06;5038073;28;20206;-73
2022/05/24 00:24:35;;;;;;;0.10;0.10;;;;;;;14.74;nan;93066.63;5041826;28;20209;-72
2022/05/24 00:27:19;;;;;;;0.10;0.10;;;;;;;14.77;nan;93076.59;5025884;28;20594;-71
2022/05/24 00:30:04;;;;;;;0.00;0.00;;;;;;;14.79;nan;93068.22;5024352;28;20585;-71
2022/05/24 00:32:48;;;;;;;0.00;0.00;;;;;;;14.78;nan;93078.06;5038634;28;20677;-71
2022/05/24 00:35:37;;;;;;;0.10;0.10;;;;;;;14.93;nan;93070.91;5011166;28;20214;-72
2022/05/24 00:38:36;;;;;;;0.10;0.10;;;;;;;14.96;nan;93064.72;5023156;28;20229;-72
2022/05/24 00:41:26;;;;;;;0.10;0.10;;;;;;;14.89;nan;93068.66;5043405;28;20255;-72
2022/05/24 00:44:27;;;;;;;0.10;0.10;;;;;;;14.83;nan;93062.75;5038013;28;20251;-71
2022/05/24 00:47:29;;;;;;;0.10;0.10;;;;;;;14.85;nan;93065.66;5008536;28;20256;-71
2022/05/24 00:50:17;;;;;;;0.10;0.10;;;;;;;14.97;nan;93060.53;5034189;28;20213;-71
2022/05/24 00:53:06;;;;;;;0.00;0.00;;;;;;;15.03;nan;93067.78;5024631;28;20286;-71
2022/05/24 00:55:58;;;;;;;0.10;0.10;;;;;;;15.06;nan;93058.03;5019569;28;20202;-71
2022/05/24 00:58:52;;;;;;;0.10;0.10;;;;;;;15.41;nan;93066.50;5019891;28;20684;-72
2022/05/24 01:01:42;;;;;;;0.00;0.00;;;;;;;15.04;nan;93069.97;5019353;28;20198;-71
2022/05/24 01:04:27;;;;;;;0.20;0.20;;;;;;;14.90;nan;93058.81;4998088;28;20245;-71
2022/05/24 01:07:11;;;;;;;0.10;0.10;;;;;;;15.00;nan;93052.16;5026028;28;21120;-71
2022/05/24 01:10:09;;;;;;;0.10;0.10;;;;;;;14.92;nan;93053.28;5020954;28;20202;-71
2022/05/24 01:13:03;;;;;;;0.10;0.10;;;;;;;15.03;nan;93045.94;5007200;28;20542;-72
2022/05/24 01:15:51;;;;;;;0.20;0.20;;;;;;;14.72;nan;93052.44;5029593;28;20206;-71
2022/05/24 01:18:35;;;;;;;0.10;0.10;;;;;;;14.94;nan;93044.88;5022176;28;20218;-72
2022/05/24 01:21:20;;;;;;;0.00;0.00;;;;;;;14.90;nan;93036.25;5044256;28;20303;-72
2022/05/24 01:24:26;;;;;;;0.00;0.00;;;;;;;14.78;nan;93027.31;5013266;28;20265;-73
2022/05/24 01:27:10;;;;;;;0.10;0.10;;;;;;;14.70;nan;93038.22;5017719;28;20206;-72
2022/05/24 01:29:55;;;;;;;0.10;0.10;;;;;;;14.60;nan;93035.00;5030375;28;20198;-72
2022/05/24 01:38:52;;;;;;;0.10;0.10;;;;;;;14.75;nan;93034.22;5029577;28;20294;-72
2022/05/24 01:41:47;;;;;;;0.00;0.00;;;;;;;14.57;nan;93025.72;5019448;28;20195;-73
2022/05/24 01:44:35;;;;;;;0.00;0.00;;;;;;;14.50;nan;93026.13;5030345;28;20652;-72
2022/05/24 01:47:22;;;;;;;0.10;0.10;;;;;;;14.53;nan;93022.00;5016830;28;20202;-73
2022/05/24 01:50:11;;;;;;;0.10;0.10;;;;;;;14.66;nan;93014.78;5020494;28;20222;-73
2022/05/24 01:53:00;;;;;;;0.10;0.10;;;;;;;14.64;nan;93004.16;4997586;28;20647;-71
2022/05/24 01:55:51;;;;;;;0.10;0.10;;;;;;;14.70;nan;93015.69;5017469;28;20256;-72
2022/05/24 01:58:38;;;;;;;0.10;0.10;;;;;;;14.73;nan;93014.41;5022763;28;20265;-72
2022/05/24 02:01:37;;;;;;;0.10;0.10;;;;;;;14.64;nan;93012.59;5016376;28;20286;-73
2022/05/24 02:04:23;;;;;;;0.10;0.10;;;;;;;14.60;nan;93012.44;5002380;28;20202;-73
2022/05/24 02:07:12;;;;;;;0.10;0.10;;;;;;;14.73;nan;93003.13;5024489;28;20202;-75
2022/05/24 02:09:57;;;;;;;0.10;0.10;;;;;;;14.64;nan;93001.31;5027404;28;20198;-74
2022/05/24 02:12:51;;;;;;;0.00;0.00;;;;;;;14.52;nan;92989.56;5018576;28;20224;-74
2022/05/24 02:15:39;;;;;;;0.00;0.00;;;;;;;14.49;nan;92991.56;4999304;28;20303;-74
2022/05/24 02:18:24;;;;;;;0.00;0.00;;;;;;;14.45;nan;92985.75;5022349;28;20683;-75
2022/05/24 02:21:09;;;;;;;0.10;0.10;;;;;;;14.63;nan;92988.59;5033699;28;20232;-74
2022/05/24 02:23:53;;;;;;;0.00;0.00;;;;;;;14.52;nan;92981.81;5038651;28;20209;-75
2022/05/24 02:26:37;;;;;;;0.10;0.10;;;;;;;14.58;nan;92970.06;5023830;28;20206;-75
2022/05/24 02:29:22;;;;;;;0.00;0.00;;;;;;;14.49;nan;92974.66;5015323;28;20201;-75
2022/05/24 02:32:07;;;;;;;0.10;0.10;;;;;;;14.51;nan;92976.81;5033987;28;20292;-75
2022/05/24 02:34:51;;;;;;;0.10;0.10;;;;;;;14.46;nan;92980.84;5024187;28;20285;-75
2022/05/24 02:37:35;;;;;;;0.10;0.10;;;;;;;14.38;nan;92969.94;5020468;28;20605;-75
2022/05/24 02:43:23;;;;;;;0.10;0.10;;;;;;;14.51;nan;92959.91;5018412;28;20642;-74
2022/05/24 02:46:10;;;;;;;0.10;0.10;;;;;;;14.58;nan;92965.16;5015967;28;20258;-74
2022/05/24 02:48:54;;;;;;;0.00;0.00;;;;;;;14.55;nan;92966.47;5013246;28;20249;-74
2022/05/24 02:51:40;;;;;;;0.10;0.10;;;;;;;14.64;nan;92975.97;5031897;28;20291;-75
2022/05/24 02:54:24;;;;;;;0.10;0.10;;;;;;;14.62;nan;92969.53;5051233;28;20201;-77
2022/05/24 02:57:09;;;;;;;0.10;0.10;;;;;;;14.65;nan;92973.88;5004461;28;20277;-75
2022/05/24 02:59:52;;;;;;;0.10;0.10;;;;;;;14.56;nan;92990.44;5021117;28;20209;-75
2022/05/24 03:02:39;;;;;;;0.10;0.10;;;;;;;14.75;nan;92991.91;5013817;28;20249;-76
2022/05/24 03:05:24;;;;;;;0.10;0.10;;;;;;;14.45;nan;92985.03;4987646;28;20219;-74
2022/05/24 03:11:11;;;;;;;0.10;0.10;;;;;;;14.94;nan;92999.75;5002848;28;20616;-74
2022/05/24 03:14:16;;;;;;;0.10;0.10;;;;;;;14.63;nan;92988.59;5004504;28;20631;-75
2022/05/24 03:17:00;;;;;;;0.10;0.10;;;;;;;14.72;nan;92987.56;5004240;28;20206;-74
2022/05/24 03:19:44;;;;;;;0.00;0.00;;;;;;;14.77;nan;92991.28;4990561;28;20211;-75
2022/05/24 03:22:30;;;;;;;0.10;0.10;;;;;;;15.00;nan;92987.28;4990618;28;20203;-76
2022/05/24 03:25:14;;;;;;;0.10;0.10;;;;;;;15.00;nan;92979.50;5000823;28;20266;-76
2022/05/24 03:28:00;;;;;;;0.10;0.10;;;;;;;14.90;nan;92988.31;4990830;28;20675;-75
2022/05/24 03:30:44;;;;;;;0.07;0.07;;;;;;;14.88;nan;92988.22;5006325;28;20306;-76
2022/05/24 03:33:28;;;;;;;0.10;0.10;;;;;;;15.00;nan;92990.09;5003232;28;20612;-75
2022/05/24 03:36:12;;;;;;;0.10;0.10;;;;;;;14.77;nan;92992.00;4993260;28;20662;-75
2022/05/24 03:38:56;;;;;;;0.10;0.10;;;;;;;14.83;nan;92991.53;4979794;28;20389;-75
2022/05/24 03:41:43;;;;;;;0.00;0.00;;;;;;;15.19;nan;92987.31;5006679;28;20278;-74
2022/05/24 03:44:28;;;;;;;0.10;0.10;;;;;;;14.74;nan;92993.31;4991108;28;20212;-73
2022/05/24 03:47:12;;;;;;;0.10;0.10;;;;;;;14.69;nan;92986.03;4984445;28;20672;-72
2022/05/24 03:49:57;;;;;;;0.10;0.10;;;;;;;14.60;nan;92984.25;4995707;28;20568;-72
2022/05/24 03:52:41;;;;;;;0.10;0.10;;;;;;;14.62;nan;92975.16;5003379;28;20207;-71
2022/05/24 03:55:25;;;;;;;0.10;0.10;;;;;;;14.64;nan;92978.78;4993371;28;20578;-71
2022/05/24 03:58:11;;;;;;;0.00;0.00;;;;;;;14.74;nan;92982.03;4997829;28;20306;-73
2022/05/24 04:00:55;;;;;;;0.10;0.10;;;;;;;14.84;nan;92979.59;5001901;28;20672;-74
2022/05/24 04:03:39;;;;;;;0.10;0.10;;;;;;;14.92;nan;92974.28;5011552;28;20296;-74
2022/05/24 04:06:23;;;;;;;0.00;0.00;;;;;;;15.02;nan;92970.41;5023854;28;20241;-72
2022/05/24 04:09:07;;;;;;;0.07;0.07;;;;;;;14.94;nan;92982.81;5006104;28;20242;-73
2022/05/24 04:11:54;;;;;;;0.10;0.10;;;;;;;15.17;nan;92975.25;5014687;28;20588;-75
2022/05/24 04:14:40;;;;;;;0.10;0.10;;;;;;;14.91;nan;92986.22;5028951;28;20634;-75
2022/05/24 04:17:25;;;;;;;0.10;0.10;;;;;;;14.84;nan;92988.06;5024563;28;20229;-74
2022/05/24 04:20:10;;;;;;;0.00;0.00;;;;;;;15.06;nan;92995.97;5032614;28;20290;-75
2022/05/24 04:22:56;;;;;;;0.00;0.00;;;;;;;15.05;nan;92991.69;5031674;28;20256;-75
2022/05/24 04:25:41;;;;;;;0.00;0.00;;;;;;;14.79;nan;92989.28;5020548;28;20257;-75
2022/05/24 04:28:25;;;;;;;0.10;0.10;;;;;;;14.77;nan;92997.66;5033625;28;20190;-76
2022/05/24 04:31:10;;;;;;;0.00;0.00;;;;;;;14.64;nan;92995.69;5029152;28;20252;-77
2022/05/24 04:33:54;;;;;;;0.10;0.10;;;;;;;14.73;nan;92996.75;5019906;28;20206;-75
2022/05/24 04:36:38;;;;;;;0.10;0.10;;;;;;;14.79;nan;93003.38;5001355;28;20238;-77
2022/05/24 04:39:22;;;;;;;0.10;0.10;;;;;;;14.74;nan;93007.41;5028543;28;20717;-76
2022/05/24 04:42:19;;;;;;;0.00;0.00;;;;;;;14.82;nan;92999.25;5007926;28;20197;-78
2022/05/24 04:45:07;;;;;;;0.10;0.10;;;;;;;14.78;nan;93010.38;5024729;28;20204;-78
2022/05/24 04:47:51;;;;;;;0.10;0.10;;;;;;;14.69;nan;93007.88;5047173;28;20229;-77
2022/05/24 04:50:38;;;;;;;0.10;0.10;;;;;;;14.83;nan;93005.63;5032258;28;20211;-78
2022/05/24 04:53:23;;;;;;;0.10;0.10;;;;;;;14.78;nan;93001.91;5019934;28;20298;-79
2022/05/24 04:56:08;;;;;;;0.10;0.10;;;;;;;14.93;nan;93008.88;5035154;28;20282;-76
2022/05/24 04:58:52;;;;;;;0.10;0.10;;;;;;;14.97;nan;93015.41;5021547;28;20230;-76
2022/05/24 05:01:39;;;;;;;0.00;0.00;;;;;;;15.00;nan;93007.03;5030463;28;20202;-74
2022/05/24 05:04:24;;;;;;;0.10;0.10;;;;;;;15.02;nan;93015.53;5006364;28;20207;-75
2022/05/24 05:07:08;;;;;;;0.00;0.00;;;;;;;15.01;nan;93008.44;4991460;28;20239;-74
2022/05/24 05:09:53;;;;;;;0.10;0.10;;;;;;;14.98;nan;93011.22;5009133;28;20199;-74
2022/05/24 05:12:37;;;;;;;0.10;0.10;;;;;;;15.14;nan;93010.38;5004581;28;20195;-76
2022/05/24 05:15:21;;;;;;;0.10;0.10;;;;;;;15.15;nan;93018.22;5009664;28;20230;-77
2022/05/24 05:18:08;;;;;;;0.00;0.00;;;;;;;15.29;nan;93020.88;5003167;28;20238;-77
2022/05/24 05:20:53;;;;;;;0.00;0.00;;;;;;;15.29;nan;93018.06;4996692;28;20199;-78
2022/05/24 05:23:37;;;;;;;0.07;0.07;;;;;;;15.34;nan;93011.19;5004936;28;20207;-77
2022/05/24 05:26:21;;;;;;;0.10;0.10;;;;;;;15.39;nan;93013.53;5007697;28;20219;-74
2022/05/24 05:29:05;;;;;;;0.10;0.10;;;;;;;15.37;nan;93009.88;4989395;28;20723;-74
2022/05/24 05:31:50;;;;;;;0.10;0.10;;;;;;;15.43;nan;93012.94;5010927;28;20250;-76
2022/05/24 05:34:34;;;;;;;0.10;0.10;;;;;;;15.40;nan;93019.91;4994281;28;20714;-73
2022/05/24 05:37:19;;;;;;;0.10;0.10;;;;;;;15.60;nan;93017.16;4995163;28;20251;-76
2022/05/24 05:40:11;;;;;;;0.03;0.03;;;;;;;15.48;nan;93025.13;4998198;28;20807;-76
2022/05/24 05:42:55;;;;;;;0.00;0.00;;;;;;;15.67;nan;93024.50;4993114;28;20203;-76
2022/05/24 05:45:41;;;;;;;0.10;0.10;;;;;;;15.86;nan;93025.91;4993012;28;20569;-76
2022/05/24 05:48:26;;;;;;;0.10;0.10;;;;;;;15.88;nan;93031.59;5002607;28;20569;-76
2022/05/24 05:51:12;;;;;;;0.00;0.00;;;;;;;15.69;nan;93045.03;5008525;28;20199;-76
2022/05/24 05:53:56;;;;;;;0.00;0.00;;;;;;;15.81;nan;93050.41;5003403;28;20230;-74
2022/05/24 05:56:41;;;;;;;0.00;0.00;;;;;;;15.89;nan;93052.84;5000613;28;20239;-73
2022/05/24 05:59:26;;;;;;;0.00;0.00;;;;;;;15.62;nan;93068.78;4994669;28;20195;-71
2022/05/24 06:02:11;;;;;;;0.10;0.10;;;;;;;15.72;nan;93066.34;5004387;28;20228;-72
2022/05/24 06:04:57;;;;;;;0.10;0.10;;;;;;;15.80;nan;93065.22;5008457;28;20210;-73
2022/05/24 06:07:41;;;;;;;0.10;0.10;;;;;;;15.45;nan;93072.31;5005028;28;20625;-76
2022/05/24 06:10:26;;;;;;;0.03;0.03;;;;;;;15.63;nan;93078.69;4976915;28;20287;-74
2022/05/24 06:13:11;;;;;;;0.00;0.00;;;;;;;15.53;nan;93071.94;4982251;28;20198;-74
2022/05/24 06:15:57;;;;;;;0.10;0.10;;;;;;;15.50;nan;93079.56;5008827;28;20238;-75
2022/05/24 06:18:42;;;;;;;0.00;0.00;;;;;;;15.47;nan;93086.50;4995584;28;20250;-74
2022/05/24 06:21:26;;;;;;;0.10;0.10;;;;;;;15.46;nan;93085.06;5008055;28;20330;-75
2022/05/24 06:24:10;;;;;;;0.03;0.03;;;;;;;15.58;nan;93088.38;5006625;28;20354;-76
2022/05/24 06:26:54;;;;;;;0.10;0.10;;;;;;;15.69;nan;93078.19;5004505;28;20207;-76
2022/05/24 06:29:39;;;;;;;0.00;0.00;;;;;;;15.72;nan;93077.66;4986384;28;20246;-74
2022/05/24 06:32:23;;;;;;;0.10;0.10;;;;;;;15.63;nan;93080.78;5001206;28;20207;-74
2022/05/24 06:35:07;;;;;;;0.10;0.10;;;;;;;15.53;nan;93083.97;4991999;28;20209;-75
2022/05/24 06:37:53;;;;;;;0.10;0.10;;;;;;;15.67;nan;93093.00;4993829;28;20219;-75
2022/05/24 06:40:38;;;;;;;0.00;0.00;;;;;;;15.58;nan;93096.13;5000862;28;20367;-74
2022/05/24 06:43:22;;;;;;;0.10;0.10;;;;;;;15.47;nan;93094.97;5006858;28;20735;-75
2022/05/24 06:46:09;;;;;;;0.10;0.10;;;;;;;15.40;nan;93110.22;5006065;28;20211;-74
2022/05/24 06:48:54;;;;;;;0.10;0.10;;;;;;;15.49;nan;93117.63;4974079;28;20619;-73
2022/05/24 06:51:37;;;;;;;0.00;0.00;;;;;;;15.34;nan;93107.16;5009686;28;20210;-76
2022/05/24 06:54:21;;;;;;;0.10;0.10;;;;;;;15.70;nan;93122.75;5011399;28;20553;-77
2022/05/24 06:57:06;;;;;;;0.00;0.00;;;;;;;15.38;nan;93122.16;4991807;28;20257;-75
2022/05/24 07:03:12;;;;;;;0.10;0.10;;;;;;;15.24;nan;93132.16;4994738;28;20703;-77
2022/05/24 07:05:57;;;;;;;0.10;0.10;;;;;;;15.16;nan;93143.09;5032849;28;20248;-78
2022/05/24 07:08:42;;;;;;;0.10;0.10;;;;;;;15.03;nan;93152.41;5037520;28;20286;-76
2022/05/24 07:11:27;;;;;;;0.10;0.10;;;;;;;15.07;nan;93161.03;5049788;28;20213;-76
2022/05/24 07:14:11;;;;;;;0.07;0.07;;;;;;;14.92;nan;93154.09;5020888;28;20259;-75
2022/05/24 07:16:55;;;;;;;0.10;0.10;;;;;;;14.76;nan;93156.19;5015664;28;20284;-73
2022/05/24 07:19:39;;;;;;;0.00;0.00;;;;;;;14.70;nan;93151.03;5003902;28;20575;-72
2022/05/24 07:22:23;;;;;;;0.00;0.00;;;;;;;14.49;nan;93154.34;5027507;28;20678;-72
2022/05/24 07:25:08;;;;;;;0.07;0.07;;;;;;;14.68;nan;93164.31;5021838;28;20610;-73
2022/05/24 07:27:52;;;;;;;0.10;0.10;;;;;;;14.84;nan;93148.81;5027440;28;20228;-72
2022/05/24 07:30:37;;;;;;;0.10;0.10;;;;;;;14.87;nan;93164.44;5022151;28;20271;-74
2022/05/24 07:33:22;;;;;;;0.10;0.10;;;;;;;14.87;nan;93170.09;5031164;28;20207;-74
2022/05/24 07:36:06;;;;;;;0.00;0.00;;;;;;;14.38;nan;93178.50;5005746;28;22147;-71
2022/05/24 07:38:51;;;;;;;0.10;0.10;;;;;;;16.16;nan;93185.28;5010912;28;20306;-74
2022/05/24 07:47:38;;;;;;;0.10;0.10;;;;;;;15.68;nan;93207.38;5038128;28;20585;-75
2022/05/24 07:50:22;;;;;;;0.10;0.10;;;;;;;15.55;nan;93199.81;5010898;28;20264;-74
2022/05/24 07:53:08;;;;;;;0.10;0.10;;;;;;;15.88;nan;93207.47;5025041;28;20202;-75
2022/05/24 07:55:57;;;;;;;0.10;0.10;;;;;;;15.89;nan;93219.50;5028478;28;20221;-75
2022/05/24 07:58:41;;;;;;;0.10;0.10;;;;;;;15.45;nan;93207.81;5013716;28;20217;-75
2022/05/24 08:01:25;;;;;;;0.10;0.10;;;;;;;15.88;nan;93224.44;5008310;28;20241;-73
2022/05/24 08:04:09;;;;;;;0.10;0.10;;;;;;;15.92;nan;93235.19;5013645;28;20230;-75
2022/05/24 08:06:55;;;;;;;0.00;0.00;;;;;;;15.40;nan;93228.78;5011347;28;20714;-76
2022/05/24 08:09:40;;;;;;;0.00;0.00;;;;;;;15.75;nan;93234.50;5021423;28;20245;-71
2022/05/24 08:12:24;;;;;;;0.07;0.07;;;;;;;15.43;nan;93244.41;5001503;28;20267;-71
2022/05/24 08:15:10;;;;;;;0.10;0.10;;;;;;;15.52;nan;93232.16;5006373;28;20186;-72
2022/05/24 08:17:54;;;;;;;0.10;0.10;;;;;;;15.57;nan;93236.59;4998404;28;20222;-72
2022/05/24 08:20:39;;;;;;;0.07;0.07;;;;;;;15.45;nan;93236.06;5004731;28;20699;-72
2022/05/24 08:23:24;;;;;;;0.07;0.07;;;;;;;16.10;nan;93227.44;4995500;28;20585;-71
2022/05/24 08:26:08;;;;;;;0.00;0.00;;;;;;;15.83;nan;93236.22;5019112;28;20273;-72
2022/05/24 08:28:53;;;;;;;0.00;0.00;;;;;;;15.59;nan;93247.97;4995310;28;20215;-72
2022/05/24 08:31:37;;;;;;;0.10;0.10;;;;;;;15.63;nan;93239.66;5009458;28;20225;-71
2022/05/24 08:34:21;;;;;;;0.10;0.10;;;;;;;15.75;nan;93251.47;4984439;28;20211;-72
2022/05/24 08:37:06;;;;;;;0.10;0.10;;;;;;;15.74;nan;93244.34;5009731;28;20880;-74
2022/05/24 08:39:51;;;;;;;0.10;0.10;;;;;;;15.63;nan;93244.59;5016803;28;20206;-74
2022/05/24 08:43:21;;;;;;;0.10;0.10;;;;;;;15.89;nan;93247.75;5013752;28;20660;-74
2022/05/24 08:49:17;;;;;;;0.10;0.10;;;;;;;16.26;nan;93250.69;5011447;28;20265;-74
2022/05/24 08:52:04;;;;;;;0.00;0.00;;;;;;;16.34;nan;93239.69;5003911;28;20343;-73
2022/05/24 08:54:48;;;;;;;0.10;0.10;;;;;;;16.05;nan;93231.44;5012307;28;20747;-76
2022/05/24 08:57:47;;;;;;;0.10;0.10;;;;;;;16.24;nan;93236.44;5003724;28;20603;-74
2022/05/24 09:00:40;;;;;;;0.10;0.10;;;;;;;15.93;nan;93236.63;5010832;28;20243;-75
2022/05/24 09:03:26;;;;;;;0.10;0.10;;;;;;;16.21;nan;93243.41;4987698;28;20243;-75
2022/05/24 09:06:28;;;;;;;0.00;0.00;;;;;;;16.01;nan;93246.16;5008764;28;20568;-73
2022/05/24 09:09:21;;;;;;;0.10;0.10;;;;;;;16.44;nan;93237.25;5007351;28;20722;-73
2022/05/24 09:12:08;;;;;;;0.10;0.10;;;;;;;16.22;nan;93244.88;4977245;28;20627;-74
2022/05/24 09:15:02;;;;;;;0.00;0.00;;;;;;;16.12;nan;93253.66;5007113;28;20207;-72
2022/05/24 09:17:58;;;;;;;0.00;0.00;;;;;;;16.28;nan;93259.25;4993712;28;20242;-79
2022/05/24 09:20:44;;;;;;;0.10;0.10;;;;;;;16.26;nan;93256.31;4997894;28;20263;-76
2022/05/24 09:23:41;;;;;;;0.10;0.10;;;;;;;16.09;nan;93259.91;5000249;28;20258;-75
2022/05/24 09:26:26;;;;;;;0.10;0.10;;;;;;;16.15;nan;93260.88;5003803;28;20218;-76
2022/05/24 09:29:14;;;;;;;0.10;0.10;;;;;;;15.82;nan;93265.84;4999358;28;20730;-73
2022/05/24 09:32:03;;;;;;;0.10;0.10;;;;;;;15.75;nan;93268.41;4993958;28;20246;-73
2022/05/24 09:35:02;;;;;;;0.10;0.10;;;;;;;17.34;nan;93270.31;4993978;28;20254;-72
2022/05/24 09:38:08;;;;;;;0.10;0.10;;;;;;;17.12;nan;93265.97;5010898;28;20710;-75
2022/05/24 09:41:04;;;;;;;0.00;0.00;;;;;;;17.13;nan;93256.81;4998652;28;20207;-75
2022/05/24 09:44:04;;;;;;;0.00;0.00;;;;;;;17.95;nan;93266.78;5006799;28;20203;-75
2022/05/24 09:46:48;;;;;;;0.07;0.07;;;;;;;17.51;nan;93268.06;5004727;28;20191;-74
2022/05/24 09:49:35;;;;;;;0.10;0.10;;;;;;;17.90;nan;93276.50;4998381;28;20239;-76
2022/05/24 09:52:20;;;;;;;0.00;0.00;;;;;;;18.33;nan;93269.44;5012595;28;20198;-74
2022/05/24 09:55:05;;;;;;;0.00;0.00;;;;;;;18.63;nan;93264.00;5003039;28;20590;-74
2022/05/24 09:57:50;;;;;;;0.00;0.00;;;;;;;18.99;nan;93273.63;5010162;28;20588;-76
2022/05/24 10:00:34;;;;;;;0.00;0.00;;;;;;;19.18;nan;93283.41;5000982;28;20597;-76
2022/05/24 10:03:25;;;;;;;0.03;0.03;;;;;;;19.09;nan;93287.38;4989926;28;20234;-71
2022/05/24 10:06:12;;;;;;;0.00;0.00;;;;;;;19.63;nan;93294.63;5012585;28;20577;-72
2022/05/24 10:09:00;;;;;;;0.07;0.07;;;;;;;18.88;nan;93286.78;5022275;28;20248;-72
2022/05/24 10:11:56;;;;;;;0.10;0.10;;;;;;;18.68;nan;93291.84;5014051;28;20284;-72
2022/05/24 10:14:46;;;;;;;0.10;0.10;;;;;;;18.88;nan;93292.47;5022982;28;20265;-71
2022/05/24 10:17:37;;;;;;;0.10;0.10;;;;;;;18.39;nan;93295.84;5015834;28;20226;-71
2022/05/24 10:20:34;;;;;;;0.00;0.00;;;;;;;18.38;nan;93299.38;5028350;28;20237;-72
2022/05/24 10:23:46;;;;;;;0.00;0.00;;;;;;;18.10;nan;93301.97;5024898;28;20202;-74
2022/05/24 10:26:52;;;;;;;0.00;0.00;;;;;;;18.51;nan;93306.88;5029096;28;20200;-82
2022/05/24 10:30:00;;;;;;;0.10;0.10;;;;;;;18.57;nan;93312.78;5033296;28;20689;-81
2022/05/24 10:40:15;;;;;;;0.10;0.10;;;;;;;18.17;nan;93304.38;5023469;28;20201;-82
2022/05/24 10:43:17;;;;;;;0.07;0.07;;;;;;;17.96;nan;93316.41;5030103;28;20210;-80
2022/05/24 10:46:11;;;;;;;0.10;0.10;;;;;;;17.83;nan;93306.06;5030177;28;20201;-84
2022/05/24 10:49:22;;;;;;;0.10;0.10;;;;;;;18.24;nan;93313.06;5018997;28;20211;-83
2022/05/24 10:52:41;;;;;;;0.10;0.10;;;;;;;18.77;nan;93321.91;5025445;28;20202;-78
2022/05/24 10:55:36;;;;;;;0.10;0.10;;;;;;;19.18;nan;93323.16;5029476;28;20567;-77
2022/05/24 10:58:20;;;;;;;0.10;0.10;;;;;;;19.30;nan;93317.81;5038510;28;20332;-77
2022/05/24 11:01:25;;;;;;;0.00;0.00;;;;;;;19.64;nan;93315.25;5022278;28;20209;-76
2022/05/24 11:04:16;;;;;;;0.10;0.10;;;;;;;18.89;nan;93315.88;5025685;28;20202;-76
2022/05/24 11:07:10;;;;;;;0.10;0.10;;;;;;;18.67;nan;93324.44;5025370;28;20202;-74
2022/05/24 11:10:09;;;;;;;0.10;0.10;;;;;;;18.87;nan;93321.50;5029845;28;20671;-73
2022/05/24 11:12:57;;;;;;;0.10;0.10;;;;;;;19.12;nan;93326.53;5027197;28;20500;-75
2022/05/24 11:15:55;;;;;;;0.10;0.10;;;;;;;19.14;nan;93325.84;5036891;28;20341;-77
2022/05/24 11:18:41;;;;;;;0.00;0.00;;;;;;;19.22;nan;93331.78;5011542;28;20217;-78
2022/05/24 11:21:34;;;;;;;0.00;0.00;;;;;;;19.31;nan;93336.31;5034475;28;20216;-77
2022/05/24 11:24:33;;;;;;;0.10;0.10;;;;;;;19.13;nan;93327.25;5018940;28;20238;-77
2022/05/24 11:27:28;;;;;;;0.00;0.00;;;;;;;19.43;nan;93319.63;5023936;28;20202;-76
2022/05/24 11:30:27;;;;;;;0.00;0.00;;;;;;;19.56;nan;93320.72;5024512;28;20217;-76
2022/05/24 11:33:16;;;;;;;0.10;0.10;;;;;;;19.74;nan;93324.81;4994184;28;20607;-74
2022/05/24 11:36:32;;;;;;;0.10;0.10;;;;;;;19.67;nan;93325.31;5004638;28;20213;-75
2022/05/24 11:39:22;;;;;;;0.10;0.10;;;;;;;19.64;nan;93335.88;5014993;28;20338;-75
2022/05/24 11:42:42;;;;;;;0.10;0.10;;;;;;;19.24;nan;93337.53;5020048;28;20362;-72
2022/05/24 11:45:29;;;;;;;0.10;0.10;;;;;;;17.67;nan;93393.31;5027821;28;20245;-82
2022/05/24 11:48:13;;;;;;;0.10;0.10;;;;;;;23.82;nan;93381.69;5022702;28;20304;-70
2022/05/24 11:51:36;;;;;;;0.37;0.37;;;;;;;16.61;nan;93384.97;5010131;28;20227;-71
2022/05/24 11:54:29;;;;;;;0.10;0.10;;;;;;;16.82;nan;93381.56;5024018;28;20674;-74
2022/05/24 11:57:13;;;;;;;0.10;0.10;;;;;;;16.97;nan;93380.75;5007204;28;20207;-74
2022/05/24 11:59:57;;;;;;;0.10;0.10;;;;;;;17.10;nan;93396.81;5015338;28;20210;-74
2022/05/24 12:09:23;;;;;;;0.10;0.10;;;;;;;17.99;nan;93402.97;5019168;28;20282;-74
2022/05/24 12:12:18;;;;;;;0.10;0.10;;;;;;;18.26;nan;93418.09;5009478;28;20668;-73
2022/05/24 12:15:21;;;;;;;0.10;0.10;;;;;;;18.67;nan;93420.94;5013889;28;20256;-74
2022/05/24 12:18:05;;;;;;;0.10;0.10;;;;;;;19.38;nan;93431.69;5036634;28;20239;-75
2022/05/24 12:20:49;;;;;;;0.10;0.10;;;;;;;19.27;nan;93422.13;5024940;28;20260;-74
2022/05/24 12:23:39;;;;;;;0.10;0.10;;;;;;;19.39;nan;93416.09;5018523;28;20210;-74
2022/05/24 12:26:23;;;;;;;0.10;0.10;;;;;;;19.04;nan;93416.44;5012924;28;20214;-75
2022/05/24 12:29:11;;;;;;;0.10;0.10;;;;;;;19.25;nan;93407.16;5021886;28;20281;-74
2022/05/24 12:32:03;;;;;;;0.10;0.10;;;;;;;19.17;nan;93412.59;5022661;28;20674;-74
2022/05/24 12:34:47;;;;;;;0.10;0.10;;;;;;;18.73;nan;93406.94;5014305;28;20270;-76
2022/05/24 12:37:33;;;;;;;0.10;0.10;;;;;;;18.82;nan;93408.66;5027335;28;20225;-76
2022/05/24 12:40:28;;;;;;;0.10;0.10;;;;;;;19.21;nan;93415.53;5040493;28;20217;-75
2022/05/24 12:43:15;;;;;;;0.10;0.10;;;;;;;19.21;nan;93418.38;5018748;28;20577;-75
2022/05/24 12:46:00;;;;;;;0.10;0.10;;;;;;;19.02;nan;93424.88;5031635;28;20221;-73
2022/05/24 12:48:47;;;;;;;0.10;0.10;;;;;;;19.24;nan;93417.78;5025928;28;20217;-71
2022/05/24 12:51:32;;;;;;;0.10;0.10;;;;;;;19.21;nan;93412.69;5033212;28;20199;-71
2022/05/24 12:54:28;;;;;;;0.10;0.10;;;;;;;19.10;nan;93425.88;5024686;28;20287;-71
2022/05/24 12:57:18;;;;;;;0.10;0.10;;;;;;;18.77;nan;93424.09;5031834;28;20618;-72
2022/05/24 13:00:20;;;;;;;0.10;0.10;;;;;;;19.81;nan;93419.53;5017700;28;20257;-73
2022/05/24 13:03:07;;;;;;;0.10;0.10;;;;;;;19.11;nan;93427.31;5035357;28;20302;-72
2022/05/24 13:06:21;;;;;;;0.10;0.10;;;;;;;19.35;nan;93421.66;5028800;28;20218;-71
2022/05/24 13:09:17;;;;;;;0.10;0.10;;;;;;;19.97;nan;93407.88;5042291;28;20196;-72
2022/05/24 13:12:07;;;;;;;0.10;0.10;;;;;;;20.13;nan;93403.34;5031901;28;20681;-70
2022/05/24 13:15:01;;;;;;;0.10;0.10;;;;;;;19.78;nan;93403.78;5022312;28;20249;-72
2022/05/24 13:17:51;;;;;;;0.10;0.10;;;;;;;20.15;nan;93405.53;5003325;28;20707;-70
2022/05/24 13:20:42;;;;;;;0.10;0.10;;;;;;;19.62;nan;93395.53;5020509;28;20245;-69
2022/05/24 13:23:31;;;;;;;0.10;0.10;;;;;;;19.25;nan;93401.47;5029875;28;20265;-72
2022/05/24 13:26:17;;;;;;;0.10;0.10;;;;;;;19.94;nan;93397.81;5012523;28;20199;-74
2022/05/24 13:29:24;;;;;;;0.10;0.10;;;;;;;20.22;nan;93401.44;5032581;28;20487;-73
2022/05/24 13:35:16;;;;;;;0.10;0.10;;;;;;;21.35;nan;93412.16;5009026;28;20640;-71
2022/05/24 13:38:01;;;;;;;0.10;0.10;;;;;;;21.92;nan;93401.97;5014418;28;20373;-71
2022/05/24 13:40:54;;;;;;;0.00;0.00;;;;;;;21.52;nan;93413.25;5024937;28;20214;-69
2022/05/24 13:43:40;;;;;;;0.60;0.60;;;;;;;20.91;nan;93408.94;5005167;28;20249;-70
2022/05/24 13:46:25;;;;;;;0.53;0.53;;;;;;;20.83;nan;93418.00;5041505;28;20208;-69
2022/05/24 13:49:09;;;;;;;1.30;0.80;;;;;;;21.36;nan;93414.31;5023644;28;20198;-69
2022/05/24 13:51:53;;;;;;;0.63;0.63;;;;;;;20.82;nan;93415.84;5028617;28;20239;-69
2022/05/24 13:54:38;;;;;;;0.73;0.70;;;;;;;20.17;nan;93414.13;5037655;28;20218;-70
2022/05/24 13:57:31;;;;;;;1.07;1.00;;;;;;;21.57;nan;93404.09;5012491;28;20257;-70
2022/05/24 14:00:27;;;;;;;1.73;1.00;;;;;;;21.45;nan;93420.22;5019155;28;20202;-71
2022/05/24 14:04:04;;;;;;;2.87;1.17;;;;;;;21.15;nan;93423.06;5011177;28;20417;-71
2022/05/24 14:06:53;;;;;;;1.00;1.00;;;;;;;22.40;nan;93422.22;4948949;29;20228;-72
2022/05/24 14:09:38;;;;;;;4.50;1.30;;;;;;;22.50;nan;93428.13;5017094;28;20190;-72
2022/05/24 14:12:22;;;;;;;2.13;1.00;;;;;;;21.43;nan;93434.41;5021866;28;20219;-73
2022/05/24 14:15:06;;;;;;;3.87;1.00;;;;;;;21.30;nan;93433.41;4999806;28;20217;-73
2022/05/24 14:17:51;;;;;;;0.90;0.80;;;;;;;21.97;nan;93438.47;5024716;28;20694;-73